Time;durP1;ratioP1;P1;durP2;ratioP2;P2;SDS_P1;SDS_P2;PMS_P1;PMS_P2;Temp;Humidity;BMP_temperature;BMP_pressure;BME280_temperature;BME280_humidity;BME280_pressure;Samples;Min_cycle;Max_cycle;Signal;HPM_P1;HPM_P2
2022/07/26 00:00:18;;;;;;;10.85;3.70;;;18.40;99.90;;;;;;4880729;28;94028;-32
2022/07/26 00:02:45;;;;;;;8.93;2.83;;;18.40;99.90;;;;;;4879763;28;93053;-33
2022/07/26 00:05:10;;;;;;;8.15;3.53;;;18.40;99.90;;;;;;4879220;28;94241;-30
2022/07/26 00:07:36;;;;;;;11.98;3.53;;;18.40;99.90;;;;;;4879545;28;95007;-30
2022/07/26 00:10:04;;;;;;;36.10;4.78;;;18.30;99.90;;;;;;4879484;28;92176;-33
2022/07/26 00:12:29;;;;;;;6.85;3.35;;;18.30;99.90;;;;;;4920806;23;94642;-31
2022/07/26 00:14:55;;;;;;;14.60;3.78;;;18.30;99.90;;;;;;4917967;28;94817;-31
2022/07/26 00:17:21;;;;;;;8.45;4.10;;;18.30;99.90;;;;;;4917809;28;94352;-30
2022/07/26 00:19:46;;;;;;;6.13;3.55;;;18.30;99.90;;;;;;4918675;28;93306;-31
2022/07/26 00:24:56;;;;;;;7.30;3.60;;;18.30;99.90;;;;;;4918547;28;94046;-31
2022/07/26 00:27:22;;;;;;;14.07;4.53;;;18.30;99.90;;;;;;4918076;28;94837;-30
2022/07/26 00:29:47;;;;;;;8.25;3.58;;;18.30;99.90;;;;;;4917385;28;92201;-30
2022/07/26 00:32:13;;;;;;;7.43;3.45;;;18.30;99.90;;;;;;4917961;28;95670;-32
2022/07/26 00:34:39;;;;;;;11.77;4.72;;;18.30;99.90;;;;;;4917195;28;93443;-29
2022/07/26 00:37:04;;;;;;;9.15;3.30;;;18.30;99.90;;;;;;4918279;28;94969;-34
2022/07/26 00:39:30;;;;;;;12.02;4.03;;;18.30;99.90;;;;;;4918138;28;93270;-33
2022/07/26 00:41:55;;;;;;;13.48;4.28;;;18.30;99.90;;;;;;4918230;28;93452;-31
2022/07/26 00:44:21;;;;;;;6.88;3.40;;;18.30;99.90;;;;;;4917268;28;94614;-35
2022/07/26 00:46:47;;;;;;;9.77;4.15;;;18.30;99.90;;;;;;4917932;28;94373;-33
2022/07/26 00:49:12;;;;;;;7.55;3.42;;;18.30;99.90;;;;;;4918505;28;91793;-32
2022/07/26 00:51:38;;;;;;;9.70;3.88;;;18.30;99.90;;;;;;4917662;28;94183;-31
2022/07/26 00:54:05;;;;;;;11.68;3.53;;;18.30;99.90;;;;;;4917769;28;95419;-33
2022/07/26 00:56:32;;;;;;;6.20;3.28;;;18.30;99.90;;;;;;4917234;28;95924;-33
2022/07/26 00:58:58;;;;;;;11.25;4.32;;;18.30;99.90;;;;;;4917828;28;95061;-33
2022/07/26 01:01:24;;;;;;;11.40;4.15;;;18.30;99.90;;;;;;4917722;28;93448;-34
2022/07/26 01:03:53;;;;;;;12.52;3.67;;;18.20;99.90;;;;;;4917193;28;94534;-34
2022/07/26 01:06:20;;;;;;;18.27;5.32;;;18.20;99.90;;;;;;4917071;28;94469;-33
2022/07/26 01:08:45;;;;;;;7.47;4.00;;;18.20;99.90;;;;;;4917151;28;92175;-36
2022/07/26 01:11:11;;;;;;;11.00;4.28;;;18.20;99.90;;;;;;4918312;28;94616;-34
2022/07/26 01:13:36;;;;;;;7.70;4.50;;;18.20;99.90;;;;;;4917289;28;94713;-31
2022/07/26 01:16:02;;;;;;;11.18;3.67;;;18.10;99.90;;;;;;4917445;28;94257;-33
2022/07/26 01:18:28;;;;;;;11.40;5.15;;;18.10;99.90;;;;;;4917389;28;94445;-32
2022/07/26 01:20:56;;;;;;;15.45;4.75;;;18.10;99.90;;;;;;4914533;28;95509;-34
2022/07/26 01:23:22;;;;;;;;;;;18.10;99.90;;;;;;4917981;28;95555;-32
2022/07/26 01:25:47;;;;;;;10.38;5.70;;;18.00;99.90;;;;;;4918240;28;94331;-34
2022/07/26 01:28:13;;;;;;;10.25;4.25;;;18.00;99.90;;;;;;4917733;28;94323;-36
2022/07/26 01:30:39;;;;;;;12.98;5.15;;;18.00;99.90;;;;;;4917266;28;93060;-33
2022/07/26 01:33:04;;;;;;;16.58;4.85;;;17.90;99.90;;;;;;4916445;28;94262;-37
2022/07/26 01:35:30;;;;;;;9.00;4.95;;;17.90;99.90;;;;;;4917908;28;94584;-34
2022/07/26 01:37:55;;;;;;;16.70;4.22;;;17.90;99.90;;;;;;4917437;28;94344;-33
2022/07/26 01:40:21;;;;;;;16.17;4.10;;;17.90;99.90;;;;;;4919137;28;94254;-34
2022/07/26 01:42:47;;;;;;;14.07;5.75;;;17.80;99.90;;;;;;4920585;28;94534;-35
2022/07/26 01:45:12;;;;;;;20.13;6.63;;;17.80;99.90;;;;;;4919048;28;95611;-35
2022/07/26 01:47:38;;;;;;;10.50;5.47;;;17.80;99.90;;;;;;4921014;28;94024;-33
2022/07/26 01:50:06;;;;;;;11.57;4.07;;;17.80;99.90;;;;;;4920206;28;93126;-33
2022/07/26 01:52:34;;;;;;;13.73;4.80;;;17.80;99.90;;;;;;4920370;28;95341;-35
2022/07/26 01:55:00;;;;;;;10.43;5.22;;;17.70;99.90;;;;;;4919980;28;94138;-33
2022/07/26 01:57:25;;;;;;;7.65;3.28;;;17.80;99.90;;;;;;4919858;28;92400;-33
2022/07/26 01:59:51;;;;;;;11.85;4.97;;;17.80;99.90;;;;;;4921255;28;94493;-32
2022/07/26 02:02:16;;;;;;;14.95;5.00;;;17.70;99.90;;;;;;4919927;28;94502;-34
2022/07/26 02:04:57;;;;;;;14.88;5.60;;;17.70;99.90;;;;;;4919365;28;93799;-35
2022/07/26 02:07:28;;;;;;;7.45;4.05;;;17.70;99.90;;;;;;4920019;28;93104;-33
2022/07/26 02:09:54;;;;;;;13.70;5.18;;;17.70;99.90;;;;;;4919613;28;94979;-32
2022/07/26 02:12:20;;;;;;;11.43;4.22;;;17.70;99.90;;;;;;4919627;28;94426;-35
2022/07/26 02:14:45;;;;;;;10.35;4.47;;;17.60;99.90;;;;;;4920079;28;96146;-32
2022/07/26 02:17:11;;;;;;;8.90;4.07;;;17.60;99.90;;;;;;4919403;28;94382;-33
2022/07/26 02:19:37;;;;;;;10.27;5.05;;;17.50;99.90;;;;;;4920032;28;93797;-33
2022/07/26 02:22:03;;;;;;;9.75;4.05;;;17.50;99.90;;;;;;4919664;28;94767;-34
2022/07/26 02:24:29;;;;;;;7.93;4.25;;;17.50;99.90;;;;;;4920014;28;94529;-36
2022/07/26 02:26:59;;;;;;;14.73;6.05;;;17.50;99.90;;;;;;4920784;28;93617;-33
2022/07/26 02:29:25;;;;;;;5.63;3.83;;;17.50;99.90;;;;;;4919687;28;92622;-33
2022/07/26 02:31:52;;;;;;;14.18;5.82;;;17.50;99.90;;;;;;4919438;28;94641;-32
2022/07/26 02:34:17;;;;;;;13.90;5.45;;;17.50;99.90;;;;;;4918796;28;94896;-33
2022/07/26 02:36:43;;;;;;;9.90;6.05;;;17.50;99.90;;;;;;4920388;28;94765;-32
2022/07/26 02:39:09;;;;;;;16.67;6.03;;;17.50;99.90;;;;;;4919355;28;92158;-35
2022/07/26 02:41:35;;;;;;;12.98;4.75;;;17.50;99.90;;;;;;4920094;28;94722;-31
2022/07/26 02:44:00;;;;;;;12.75;5.22;;;17.50;99.90;;;;;;4919242;28;94242;-34
2022/07/26 02:46:26;;;;;;;8.82;5.07;;;17.50;99.90;;;;;;4920003;28;94885;-36
2022/07/26 02:48:52;;;;;;;9.77;4.30;;;17.50;99.90;;;;;;4919374;28;92185;-35
2022/07/26 02:51:17;;;;;;;12.80;4.80;;;17.50;99.90;;;;;;4918654;28;94025;-35
2022/07/26 02:53:43;;;;;;;20.10;5.88;;;17.50;99.90;;;;;;4918979;28;94621;-34
2022/07/26 02:56:09;;;;;;;13.00;4.95;;;17.50;99.90;;;;;;4918945;28;94262;-33
2022/07/26 02:58:36;;;;;;;18.73;7.47;;;17.50;99.90;;;;;;4919193;28;93897;-34
2022/07/26 03:01:01;;;;;;;15.50;5.90;;;17.50;99.90;;;;;;4919855;28;95160;-33
2022/07/26 03:03:27;;;;;;;15.73;5.95;;;17.50;99.90;;;;;;4918874;28;94496;-32
2022/07/26 03:05:53;;;;;;;10.05;5.35;;;17.50;99.90;;;;;;4919410;28;92506;-32
2022/07/26 03:08:19;;;;;;;13.65;5.07;;;17.50;99.90;;;;;;4918645;28;94544;-33
2022/07/26 03:10:45;;;;;;;10.18;5.00;;;17.40;99.90;;;;;;4919056;28;93885;-33
2022/07/26 03:13:10;;;;;;;12.43;5.05;;;17.50;99.90;;;;;;4918765;28;96181;-34
2022/07/26 03:15:36;;;;;;;23.70;5.38;;;17.50;99.90;;;;;;4920073;28;91403;-32
2022/07/26 03:18:02;;;;;;;11.38;5.07;;;17.50;99.90;;;;;;4919375;28;93818;-33
2022/07/26 03:20:28;;;;;;;12.05;4.68;;;17.50;99.90;;;;;;4917813;28;95055;-33
2022/07/26 03:22:53;;;;;;;10.02;4.30;;;17.50;99.90;;;;;;4918828;28;94571;-31
2022/07/26 03:25:19;;;;;;;7.78;4.07;;;17.50;99.90;;;;;;4918903;28;92602;-31
2022/07/26 03:27:44;;;;;;;6.45;4.35;;;17.50;99.90;;;;;;4919584;28;94728;-31
2022/07/26 03:30:11;;;;;;;8.50;5.30;;;17.50;99.90;;;;;;4918689;28;94139;-29
2022/07/26 03:32:36;;;;;;;8.75;4.45;;;17.50;99.90;;;;;;4917558;28;94702;-31
2022/07/26 03:35:03;;;;;;;9.02;6.35;;;17.50;99.90;;;;;;4919328;28;94007;-31
2022/07/26 03:37:29;;;;;;;13.63;5.38;;;17.50;99.90;;;;;;4918595;28;94135;-30
2022/07/26 03:39:55;;;;;;;7.80;3.90;;;17.50;99.90;;;;;;4919090;28;94100;-30
2022/07/26 03:42:21;;;;;;;9.63;5.57;;;17.50;99.90;;;;;;4919010;28;94930;-30
2022/07/26 03:44:46;;;;;;;9.38;5.22;;;17.50;99.90;;;;;;4918328;28;94019;-31
2022/07/26 03:47:12;;;;;;;9.25;4.82;;;17.50;99.90;;;;;;4918382;28;95487;-31
2022/07/26 03:49:37;;;;;;;8.75;4.22;;;17.50;99.90;;;;;;4918169;28;94357;-32
2022/07/26 03:52:03;;;;;;;9.95;6.10;;;17.50;99.90;;;;;;4918605;28;94380;-31
2022/07/26 03:54:29;;;;;;;8.20;4.35;;;17.60;99.90;;;;;;4918436;28;93640;-34
2022/07/26 03:56:55;;;;;;;11.15;3.85;;;17.60;99.90;;;;;;4918017;28;93617;-33
2022/07/26 03:59:22;;;;;;;6.18;3.50;;;17.60;99.90;;;;;;4918988;28;94791;-31
2022/07/26 04:01:49;;;;;;;3.95;2.83;;;17.50;99.90;;;;;;4901177;28;94379;-32
2022/07/26 04:04:18;;;;;;;5.90;2.90;;;17.50;99.90;;;;;;4918502;28;92688;-35
2022/07/26 04:06:46;;;;;;;5.30;3.50;;;17.40;99.90;;;;;;4918279;28;94345;-34
2022/07/26 04:09:12;;;;;;;6.70;3.10;;;17.30;99.90;;;;;;4918269;28;94931;-33
2022/07/26 04:11:39;;;;;;;7.38;2.92;;;17.30;99.90;;;;;;4917784;28;96410;-34
2022/07/26 04:14:05;;;;;;;9.18;3.90;;;17.20;99.90;;;;;;4918202;28;92672;-34
2022/07/26 04:16:31;;;;;;;10.80;3.20;;;17.20;99.90;;;;;;4918648;28;94052;-32
2022/07/26 04:18:57;;;;;;;6.57;2.63;;;17.20;99.90;;;;;;4917820;28;96138;-31
2022/07/26 04:21:23;;;;;;;6.78;3.08;;;17.20;99.90;;;;;;4917435;28;94540;-34
2022/07/26 04:23:49;;;;;;;8.35;3.20;;;17.20;99.90;;;;;;4918827;28;94333;-31
2022/07/26 04:26:14;;;;;;;5.05;3.08;;;17.20;99.90;;;;;;4917161;28;92826;-32
2022/07/26 04:28:41;;;;;;;5.97;3.25;;;17.20;99.90;;;;;;4918652;28;93996;-30
2022/07/26 04:31:06;;;;;;;8.40;2.80;;;17.20;99.90;;;;;;4917475;28;93805;-33
2022/07/26 04:33:32;;;;;;;4.70;2.70;;;17.20;99.90;;;;;;4917862;28;94515;-31
2022/07/26 04:35:58;;;;;;;6.32;2.53;;;17.20;99.90;;;;;;4917260;28;93963;-33
2022/07/26 04:38:24;;;;;;;4.63;2.13;;;17.20;99.90;;;;;;4917628;28;94487;-32
2022/07/26 04:40:50;;;;;;;2.63;2.42;;;17.20;99.90;;;;;;4917925;28;95148;-30
2022/07/26 04:43:16;;;;;;;3.45;2.80;;;17.20;99.90;;;;;;4917929;28;94048;-30
2022/07/26 04:45:46;;;;;;;3.40;2.72;;;17.20;99.90;;;;;;4917344;28;92971;-31
2022/07/26 04:48:12;;;;;;;4.55;2.20;;;17.30;99.90;;;;;;4917126;28;94639;-32
2022/07/26 04:50:38;;;;;;;7.15;2.65;;;17.30;99.90;;;;;;4918049;28;94851;-31
2022/07/26 04:53:03;;;;;;;7.70;3.47;;;17.30;99.90;;;;;;4917971;28;92434;-32
2022/07/26 04:55:29;;;;;;;5.18;2.58;;;17.30;99.90;;;;;;4918124;28;93780;-32
2022/07/26 04:57:55;;;;;;;6.38;2.72;;;17.30;99.90;;;;;;4917671;28;95741;-31
2022/07/26 05:00:23;;;;;;;6.03;3.08;;;17.30;99.90;;;;;;4916697;28;93417;-32
2022/07/26 05:02:54;;;;;;;6.25;3.13;;;17.30;99.90;;;;;;4918153;28;94296;-32
2022/07/26 05:05:21;;;;;;;4.65;2.22;;;17.30;99.90;;;;;;4916654;28;92225;-32
2022/07/26 05:07:56;;;;;;;5.18;2.60;;;17.20;99.90;;;;;;4900483;28;94642;-31
2022/07/26 05:10:31;;;;;;;3.90;2.75;;;17.20;99.90;;;;;;4916886;28;96628;-33
2022/07/26 05:12:57;;;;;;;8.23;2.80;;;17.30;99.90;;;;;;4917314;28;93114;-31
2022/07/26 05:15:23;;;;;;;4.38;2.22;;;17.20;99.90;;;;;;4918690;28;92100;-30
2022/07/26 05:17:49;;;;;;;3.78;1.63;;;17.30;99.90;;;;;;4921173;28;93983;-30
2022/07/26 05:20:15;;;;;;;3.05;1.73;;;17.20;99.90;;;;;;4919903;28;94627;-30
2022/07/26 05:22:41;;;;;;;4.22;2.53;;;17.30;99.90;;;;;;4921081;28;93932;-31
2022/07/26 05:25:07;;;;;;;3.67;2.15;;;17.30;99.90;;;;;;4919807;28;94609;-31
2022/07/26 05:27:33;;;;;;;5.93;2.25;;;17.30;99.90;;;;;;4920714;28;95183;-34
2022/07/26 05:29:59;;;;;;;3.53;1.48;;;17.30;99.90;;;;;;4920144;28;94435;-31
2022/07/26 05:32:26;;;;;;;6.15;1.90;;;17.30;99.90;;;;;;4920756;28;93181;-32
2022/07/26 05:34:52;;;;;;;7.27;3.20;;;17.30;99.90;;;;;;4920966;28;94527;-31
2022/07/26 05:37:18;;;;;;;4.57;1.25;;;17.30;99.90;;;;;;4920060;28;94642;-32
2022/07/26 05:39:44;;;;;;;9.70;2.25;;;17.30;99.90;;;;;;4921118;28;95032;-31
2022/07/26 05:42:09;;;;;;;2.97;2.42;;;17.30;99.90;;;;;;4920628;28;93641;-34
2022/07/26 05:44:35;;;;;;;4.78;2.17;;;17.40;99.90;;;;;;4920491;28;92482;-33
2022/07/26 05:47:01;;;;;;;5.00;2.33;;;17.40;99.90;;;;;;4920527;28;94896;-31
2022/07/26 05:49:26;;;;;;;6.82;2.58;;;17.30;99.90;;;;;;4919066;28;95342;-30
2022/07/26 05:51:52;;;;;;;3.38;2.30;;;17.40;99.90;;;;;;4920907;28;92688;-32
2022/07/26 05:54:19;;;;;;;5.75;2.17;;;17.40;99.90;;;;;;4919599;28;93362;-33
2022/07/26 05:56:45;;;;;;;3.63;1.63;;;17.40;99.90;;;;;;4919400;28;95063;-34
2022/07/26 05:59:11;;;;;;;5.95;2.30;;;17.40;99.90;;;;;;4920333;28;94880;-30
2022/07/26 06:01:36;;;;;;;3.58;1.40;;;17.50;99.90;;;;;;4918147;28;93381;-31
2022/07/26 06:04:02;;;;;;;3.10;1.70;;;17.50;99.90;;;;;;4920584;28;94245;-34
2022/07/26 06:06:28;;;;;;;2.30;1.55;;;17.40;99.90;;;;;;4919657;28;92627;-29
2022/07/26 06:08:54;;;;;;;4.45;1.45;;;17.30;99.90;;;;;;4906527;28;93940;-31
2022/07/26 06:11:20;;;;;;;2.38;1.33;;;17.30;99.90;;;;;;4919860;28;93032;-30
2022/07/26 06:13:46;;;;;;;4.88;2.00;;;17.30;99.90;;;;;;4918725;28;95951;-32
2022/07/26 06:16:12;;;;;;;1.45;1.30;;;17.40;99.90;;;;;;4920311;28;94933;-31
2022/07/26 06:18:38;;;;;;;1.65;1.40;;;17.50;99.90;;;;;;4920405;28;94513;-32
2022/07/26 06:21:04;;;;;;;5.75;2.15;;;17.60;99.90;;;;;;4919804;28;94837;-34
2022/07/26 06:23:30;;;;;;;4.10;1.42;;;17.60;99.90;;;;;;4919959;28;94081;-30
2022/07/26 06:25:55;;;;;;;2.35;1.20;;;17.60;99.90;;;;;;4929152;28;95034;-30
2022/07/26 06:28:21;;;;;;;1.80;1.23;;;17.70;99.90;;;;;;4923932;28;94416;-31
2022/07/26 06:30:46;;;;;;;3.22;1.05;;;17.80;99.90;;;;;;4918938;28;93187;-33
2022/07/26 06:33:12;;;;;;;4.88;1.25;;;17.80;99.90;;;;;;4929804;28;93497;-31
2022/07/26 06:35:38;;;;;;;2.60;1.00;;;17.70;99.90;;;;;;4929943;28;94838;-30
2022/07/26 06:38:05;;;;;;;3.33;1.95;;;17.70;99.90;;;;;;4930189;28;94290;-32
2022/07/26 06:40:32;;;;;;;8.02;1.10;;;17.80;99.90;;;;;;4931706;28;92325;-34
2022/07/26 06:42:58;;;;;;;4.68;1.02;;;17.90;99.90;;;;;;4930911;28;92925;-29
2022/07/26 06:45:24;;;;;;;2.33;1.05;;;18.00;99.90;;;;;;4930422;28;94810;-30
2022/07/26 06:47:50;;;;;;;3.58;1.15;;;17.90;99.90;;;;;;4930588;28;94540;-33
2022/07/26 06:50:15;;;;;;;1.95;0.88;;;17.90;99.90;;;;;;4930305;28;92796;-30
2022/07/26 06:52:41;;;;;;;1.05;0.65;;;17.80;99.90;;;;;;4930613;28;92430;-30
2022/07/26 06:55:07;;;;;;;0.70;0.70;;;17.60;99.90;;;;;;4930722;28;92669;-31
2022/07/26 06:57:34;;;;;;;1.58;1.10;;;17.50;99.90;;;;;;4928918;28;93855;-30
2022/07/26 07:00:00;;;;;;;4.40;0.82;;;17.40;99.90;;;;;;4931199;28;93028;-30
2022/07/26 07:02:25;;;;;;;2.30;1.10;;;17.30;99.90;;;;;;4930189;28;93105;-30
2022/07/26 07:04:51;;;;;;;2.75;0.95;;;17.20;99.90;;;;;;4930460;28;94790;-30
2022/07/26 07:07:17;;;;;;;1.75;1.00;;;17.20;99.90;;;;;;4930671;28;94644;-30
2022/07/26 07:09:42;;;;;;;1.42;1.02;;;17.20;99.90;;;;;;4931645;28;93554;-31
2022/07/26 07:12:08;;;;;;;3.55;1.35;;;17.30;99.90;;;;;;4929408;28;92193;-29
2022/07/26 07:14:34;;;;;;;3.60;0.93;;;17.30;99.90;;;;;;4924314;28;94793;-31
2022/07/26 07:17:00;;;;;;;3.05;0.80;;;17.30;99.90;;;;;;4914417;28;94927;-31
2022/07/26 07:19:26;;;;;;;3.05;1.25;;;17.40;99.90;;;;;;4924496;28;93836;-32
2022/07/26 07:21:51;;;;;;;5.50;1.20;;;17.50;99.90;;;;;;4927787;28;92111;-29
2022/07/26 07:24:17;;;;;;;4.00;1.10;;;17.60;99.90;;;;;;4928481;28;94763;-30
2022/07/26 07:26:43;;;;;;;4.25;1.60;;;17.60;99.90;;;;;;4927687;28;94126;-29
2022/07/26 07:29:13;;;;;;;4.50;0.80;;;17.60;99.90;;;;;;4929050;28;93079;-32
2022/07/26 07:31:39;;;;;;;4.88;1.73;;;17.50;99.90;;;;;;4929541;28;92667;-30
2022/07/26 07:34:05;;;;;;;2.63;1.00;;;17.60;99.90;;;;;;4929984;28;94826;-35
2022/07/26 07:36:30;;;;;;;3.40;1.05;;;17.60;99.90;;;;;;4929518;28;94474;-33
2022/07/26 07:38:56;;;;;;;1.83;0.85;;;17.50;99.90;;;;;;4930277;28;93283;-29
2022/07/26 07:41:21;;;;;;;4.22;1.20;;;17.30;99.90;;;;;;4928507;28;92343;-31
2022/07/26 07:43:47;;;;;;;2.42;1.40;;;17.20;99.90;;;;;;4927130;28;93865;-31
2022/07/26 07:46:12;;;;;;;4.38;1.40;;;17.10;99.90;;;;;;4925277;28;92860;-31
2022/07/26 07:48:39;;;;;;;2.05;1.23;;;17.00;99.90;;;;;;4919018;28;93462;-30
2022/07/26 07:51:06;;;;;;;3.42;1.02;;;17.00;99.90;;;;;;4919516;28;93042;-31
2022/07/26 07:53:32;;;;;;;2.78;1.08;;;17.10;99.90;;;;;;4923511;28;94932;-31
2022/07/26 07:55:57;;;;;;;1.48;1.05;;;17.20;99.90;;;;;;4924321;28;94791;-30
2022/07/26 07:58:23;;;;;;;3.47;1.05;;;17.20;99.90;;;;;;4927993;28;93518;-30
2022/07/26 08:00:49;;;;;;;3.00;0.77;;;17.20;99.90;;;;;;4929333;28;92734;-32
2022/07/26 08:03:15;;;;;;;3.00;0.82;;;17.30;99.90;;;;;;4927418;28;94588;-30
2022/07/26 08:05:40;;;;;;;3.28;1.38;;;17.40;99.90;;;;;;4930102;28;94105;-30
2022/07/26 08:08:06;;;;;;;4.03;1.17;;;17.50;99.90;;;;;;4925958;28;91728;-30
2022/07/26 08:10:31;;;;;;;2.38;1.23;;;17.70;99.90;;;;;;4929686;28;94049;-29
2022/07/26 08:12:57;;;;;;;2.50;1.00;;;17.80;99.90;;;;;;4922017;28;95242;-34
2022/07/26 08:15:23;;;;;;;1.70;0.88;;;18.00;99.90;;;;;;4925891;28;94304;-30
2022/07/26 08:17:49;;;;;;;2.05;1.08;;;18.10;99.90;;;;;;4927413;28;93946;-30
2022/07/26 08:20:15;;;;;;;3.35;1.02;;;18.20;99.90;;;;;;4926882;28;92937;-30
2022/07/26 08:22:41;;;;;;;3.70;1.30;;;18.30;99.90;;;;;;4929638;28;95046;-30
2022/07/26 08:25:07;;;;;;;4.07;0.90;;;18.40;99.90;;;;;;4927631;28;94976;-31
2022/07/26 08:27:33;;;;;;;3.00;1.45;;;18.50;99.90;;;;;;4926414;28;93375;-32
2022/07/26 08:29:59;;;;;;;1.85;1.50;;;18.50;99.90;;;;;;4928340;28;92232;-31
2022/07/26 08:32:24;;;;;;;3.13;0.77;;;18.40;99.90;;;;;;4929382;28;94175;-30
2022/07/26 08:34:50;;;;;;;2.67;0.70;;;18.40;99.90;;;;;;4927230;28;93826;-29
2022/07/26 08:37:16;;;;;;;1.60;1.00;;;18.30;99.90;;;;;;4926740;28;92544;-30
2022/07/26 08:39:41;;;;;;;2.38;1.08;;;18.30;99.90;;;;;;4928656;28;93750;-31
2022/07/26 08:42:18;;;;;;;5.40;1.33;;;18.40;99.90;;;;;;4920718;28;93603;-30
2022/07/26 08:44:46;;;;;;;3.15;0.73;;;18.40;99.90;;;;;;4926547;28;94674;-29
2022/07/26 08:47:17;;;;;;;2.55;0.80;;;18.40;99.90;;;;;;4929166;28;92310;-31
2022/07/26 08:49:43;;;;;;;2.15;1.15;;;18.40;99.90;;;;;;4929477;28;92272;-32
2022/07/26 08:52:10;;;;;;;1.65;0.73;;;18.30;99.90;;;;;;4932249;28;94603;-30
2022/07/26 08:54:41;;;;;;;1.92;1.20;;;18.40;99.90;;;;;;4932434;28;93153;-31
2022/07/26 08:57:06;;;;;;;4.78;0.95;;;18.50;99.90;;;;;;4931158;28;91445;-32
2022/07/26 08:59:32;;;;;;;1.35;1.00;;;18.70;99.90;;;;;;4932847;28;93122;-31
2022/07/26 09:02:01;;;;;;;7.82;1.60;;;18.90;99.90;;;;;;4932309;28;95089;-30
2022/07/26 09:04:30;;;;;;;2.40;0.80;;;19.10;99.90;;;;;;4931641;28;94765;-30
2022/07/26 09:06:56;;;;;;;4.15;1.08;;;19.50;99.90;;;;;;4932398;28;92441;-31
2022/07/26 09:09:22;;;;;;;3.20;1.27;;;19.80;99.90;;;;;;4932275;28;93213;-31
2022/07/26 09:11:48;;;;;;;5.95;1.63;;;20.00;99.90;;;;;;4932539;28;94695;-32
2022/07/26 09:14:13;;;;;;;2.63;0.65;;;20.00;99.90;;;;;;4931907;28;94517;-32
2022/07/26 09:16:40;;;;;;;8.18;1.15;;;19.70;99.90;;;;;;4932698;28;92256;-31
2022/07/26 09:19:20;;;;;;;1.67;1.00;;;19.50;99.90;;;;;;4931517;28;92954;-31
2022/07/26 09:21:46;;;;;;;1.65;0.80;;;19.20;99.90;;;;;;4932036;28;93878;-30
2022/07/26 09:24:11;;;;;;;1.10;1.05;;;19.00;99.90;;;;;;4931970;28;93868;-31
2022/07/26 09:26:37;;;;;;;5.30;1.63;;;18.80;99.90;;;;;;4932417;28;93087;-31
2022/07/26 09:29:11;;;;;;;3.88;1.55;;;18.60;99.90;;;;;;4924146;28;95045;-32
2022/07/26 09:31:38;;;;;;;4.82;1.42;;;18.50;99.90;;;;;;4931327;28;94856;-31
2022/07/26 09:34:05;;;;;;;1.88;1.00;;;18.50;99.90;;;;;;4931500;28;95156;-30
2022/07/26 09:36:31;;;;;;;4.43;1.63;;;18.60;99.90;;;;;;4931253;28;93096;-30
2022/07/26 09:39:01;;;;;;;4.47;1.23;;;18.70;99.90;;;;;;4931724;28;92660;-31
2022/07/26 09:41:28;;;;;;;1.48;1.08;;;18.90;99.90;;;;;;4931464;28;94599;-30
2022/07/26 09:43:58;;;;;;;1.70;1.50;;;19.10;99.90;;;;;;4931643;28;94749;-31
2022/07/26 09:46:25;;;;;;;7.13;1.17;;;19.30;99.90;;;;;;4931771;28;92399;-32
2022/07/26 09:48:52;;;;;;;5.78;1.33;;;19.30;99.90;;;;;;4930229;28;93107;-32
2022/07/26 09:51:38;;;;;;;10.70;1.55;;;19.50;99.90;;;;;;4930602;28;94666;-33
2022/07/26 09:54:04;;;;;;;3.53;0.98;;;19.60;99.90;;;;;;4913474;28;94747;-33
2022/07/26 09:56:51;;;;;;;2.67;0.82;;;19.70;99.90;;;;;;4932291;28;92600;-30
2022/07/26 09:59:19;;;;;;;3.37;1.70;;;19.60;99.90;;;;;;4931262;28;92768;-31
2022/07/26 10:01:45;;;;;;;4.57;1.38;;;19.50;99.90;;;;;;4930329;28;94846;-30
2022/07/26 10:04:11;;;;;;;1.42;0.85;;;19.40;99.90;;;;;;4929334;28;94418;-31
2022/07/26 10:06:37;;;;;;;3.78;1.20;;;19.30;99.90;;;;;;4929782;28;92232;-33
2022/07/26 10:09:03;;;;;;;1.40;1.13;;;19.10;99.90;;;;;;4922365;28;92852;-34
2022/07/26 10:11:36;;;;;;;1.90;0.93;;;19.30;99.90;;;;;;4926644;28;93704;-31
2022/07/26 10:14:40;;;;;;;4.32;1.67;;;19.30;99.90;;;;;;4930810;28;93863;-30
2022/07/26 10:17:28;;;;;;;6.38;1.60;;;19.30;99.90;;;;;;4929892;28;93308;-32
2022/07/26 10:20:34;;;;;;;3.85;1.13;;;19.10;99.90;;;;;;4930940;28;94410;-31
2022/07/26 10:22:59;;;;;;;4.05;1.45;;;19.00;99.90;;;;;;4891259;28;94856;-31
2022/07/26 10:25:25;;;;;;;1.58;1.35;;;18.80;99.90;;;;;;4930691;28;94557;-30
2022/07/26 10:27:53;;;;;;;5.28;1.67;;;18.70;99.90;;;;;;4930402;28;94408;-32
2022/07/26 10:30:23;;;;;;;6.50;1.70;;;18.60;99.90;;;;;;4930783;28;92616;-29
2022/07/26 10:32:55;;;;;;;2.17;1.55;;;18.50;99.90;;;;;;4930028;28;93369;-30
2022/07/26 10:35:33;;;;;;;8.63;2.28;;;18.40;99.90;;;;;;4930519;28;94542;-29
2022/07/26 10:38:25;;;;;;;5.05;2.00;;;18.40;99.90;;;;;;4931438;28;92001;-30
2022/07/26 10:40:59;;;;;;;6.05;1.50;;;18.30;99.90;;;;;;4930189;28;94019;-33
2022/07/26 10:43:26;;;;;;;5.45;2.13;;;18.20;99.90;;;;;;4925941;28;93695;-31
2022/07/26 10:46:17;;;;;;;2.15;1.35;;;18.20;99.90;;;;;;4927971;28;94976;-29
2022/07/26 10:48:58;;;;;;;3.78;2.30;;;18.30;99.90;;;;;;4929928;28;92149;-30
2022/07/26 10:51:26;;;;;;;7.35;2.17;;;18.40;99.90;;;;;;4929730;28;92183;-30
2022/07/26 10:54:06;;;;;;;5.55;1.52;;;18.40;99.90;;;;;;4928509;28;94706;-30
2022/07/26 10:56:32;;;;;;;6.70;2.22;;;18.50;99.90;;;;;;4930252;28;94559;-30
2022/07/26 10:58:58;;;;;;;2.42;1.40;;;18.50;99.90;;;;;;4930656;28;93247;-31
2022/07/26 11:01:34;;;;;;;4.30;2.10;;;18.70;99.90;;;;;;4930127;28;92154;-33
2022/07/26 11:04:00;;;;;;;4.22;2.33;;;18.70;99.90;;;;;;4930983;28;93960;-29
2022/07/26 11:06:27;;;;;;;7.97;2.45;;;18.70;99.90;;;;;;4930064;28;93728;-31
2022/07/26 11:08:54;;;;;;;4.73;2.93;;;18.70;99.90;;;;;;4930422;28;93321;-30
2022/07/26 11:11:28;;;;;;;6.17;2.73;;;18.80;99.90;;;;;;4929706;28;93838;-31
2022/07/26 11:14:10;;;;;;;3.65;1.52;;;18.80;99.90;;;;;;4929255;28;94126;-33
2022/07/26 11:16:38;;;;;;;7.80;3.03;;;18.90;99.90;;;;;;4929160;28;94435;-32
2022/07/26 11:19:18;;;;;;;7.85;3.10;;;18.90;99.90;;;;;;4929067;28;92885;-29
2022/07/26 11:21:45;;;;;;;11.75;3.55;;;18.80;99.90;;;;;;4929369;28;93326;-30
2022/07/26 11:24:11;;;;;;;14.82;3.25;;;18.60;99.90;;;;;;4929562;28;93441;-30
2022/07/26 11:26:45;;;;;;;11.98;3.10;;;18.40;99.90;;;;;;4928902;28;94526;-31
2022/07/26 11:29:11;;;;;;;5.80;2.67;;;18.20;99.90;;;;;;4930009;28;92680;-30
2022/07/26 11:31:38;;;;;;;9.68;2.35;;;18.00;99.90;;;;;;4928464;28;93548;-31
2022/07/26 11:34:05;;;;;;;4.93;2.42;;;17.90;99.90;;;;;;4922522;28;95508;-31
2022/07/26 11:36:36;;;;;;;13.20;3.17;;;17.80;99.90;;;;;;4926332;28;94854;-31
2022/07/26 11:39:03;;;;;;;13.80;3.17;;;17.90;99.90;;;;;;4930060;28;92135;-31
2022/07/26 11:41:30;;;;;;;12.68;2.78;;;18.20;99.90;;;;;;4929412;28;92417;-30
2022/07/26 11:43:56;;;;;;;7.25;2.65;;;18.40;99.90;;;;;;4929819;28;94852;-31
2022/07/26 11:46:30;;;;;;;9.63;2.95;;;18.60;99.90;;;;;;4929082;28;93668;-33
2022/07/26 11:48:55;;;;;;;4.05;2.22;;;18.90;99.90;;;;;;4930713;28;92170;-30
2022/07/26 11:51:23;;;;;;;8.40;2.55;;;19.10;99.90;;;;;;4929250;28;92148;-31
2022/07/26 11:53:50;;;;;;;4.03;2.50;;;19.10;99.90;;;;;;4930516;28;94023;-30
2022/07/26 11:56:21;;;;;;;3.10;1.60;;;19.00;99.90;;;;;;4928733;28;93980;-31
2022/07/26 11:58:49;;;;;;;7.88;2.45;;;18.90;99.90;;;;;;4929522;28;92511;-31
2022/07/26 12:01:15;;;;;;;;;;;18.90;99.90;;;;;;4923517;28;94439;-32
2022/07/26 12:03:43;;;;;;;6.82;2.05;;;18.80;99.90;;;;;;4920628;28;94822;-32
2022/07/26 12:06:12;;;;;;;6.30;2.22;;;18.80;99.90;;;;;;4920909;28;94401;-33
2022/07/26 12:08:51;;;;;;;6.35;2.47;;;18.80;99.90;;;;;;4916807;28;93185;-32
2022/07/26 12:11:18;;;;;;;16.58;3.25;;;18.90;99.90;;;;;;4922897;28;92446;-32
2022/07/26 12:14:00;;;;;;;5.00;2.05;;;18.90;99.90;;;;;;4954667;22;94119;-30
2022/07/26 12:16:44;;;;;;;2.83;1.70;;;19.10;99.90;;;;;;4923578;28;93304;-33
2022/07/26 12:19:26;;;;;;;4.80;1.67;;;19.20;99.90;;;;;;4929134;28;91430;-30
2022/07/26 12:21:55;;;;;;;16.33;2.55;;;19.30;99.90;;;;;;4929214;28;93342;-32
2022/07/26 12:24:42;;;;;;;15.68;2.05;;;19.30;99.90;;;;;;4925296;28;93204;-30
2022/07/26 12:27:14;;;;;;;5.03;1.90;;;19.20;99.90;;;;;;4916401;28;94563;-32
2022/07/26 12:29:42;;;;;;;5.18;2.00;;;19.20;99.90;;;;;;4928824;28;94225;-31
2022/07/26 12:32:14;;;;;;;6.68;2.30;;;19.00;99.90;;;;;;4929002;28;92353;-30
2022/07/26 12:34:52;;;;;;;9.02;2.33;;;19.00;99.90;;;;;;4929012;28;93569;-31
2022/07/26 12:37:18;;;;;;;2.92;1.30;;;19.00;99.90;;;;;;4928280;28;93982;-29
2022/07/26 12:40:01;;;;;;;11.00;2.88;;;19.00;99.90;;;;;;4927427;28;92190;-30
2022/07/26 12:42:32;;;;;;;6.43;2.17;;;19.10;99.90;;;;;;4923419;28;92857;-31
2022/07/26 12:44:59;;;;;;;5.13;1.83;;;19.20;99.90;;;;;;4926712;28;94044;-33
2022/07/26 12:47:26;;;;;;;3.58;1.92;;;19.30;99.90;;;;;;4923879;28;93886;-32
2022/07/26 12:49:52;;;;;;;2.03;1.65;;;19.30;99.90;;;;;;4922460;28;93131;-32